Time;durP1;ratioP1;P1;durP2;ratioP2;P2;SDS_P1;SDS_P2;PMS_P1;PMS_P2;Temp;Humidity;BMP_temperature;BMP_pressure;BME280_temperature;BME280_humidity;BME280_pressure;Samples;Min_cycle;Max_cycle;Signal;HPM_P1;HPM_P2
2021/04/04 00:00:30;;;;;;;;;;;;;;;5.04;67.09;100371.30;1806930;79;20209;-57
2021/04/04 00:03:34;;;;;;;;;;;;;;;5.04;67.08;100370.43;1806970;79;20288;-57
2021/04/04 00:06:38;;;;;;;;;;;;;;;5.01;67.05;100366.65;1806837;79;20280;-58
2021/04/04 00:09:46;;;;;;;;;;;;;;;5.00;67.06;100373.05;1806869;79;20296;-57
2021/04/04 00:12:53;;;;;;;;;;;;;;;4.95;66.88;100366.70;1806911;79;20288;-57
2021/04/04 00:15:59;;;;;;;;;;;;;;;4.92;66.96;100372.89;1806852;79;20638;-57
2021/04/04 00:19:05;;;;;;;;;;;;;;;4.84;66.85;100370.89;1806887;79;20214;-57
2021/04/04 00:22:11;;;;;;;;;;;;;;;4.76;66.88;100365.83;1786025;79;20296;-57
2021/04/04 00:25:18;;;;;;;;;;;;;;;4.72;67.18;100368.44;1774405;81;20286;-58
2021/04/04 00:28:21;;;;;;;;;;;;;;;4.75;67.38;100373.58;1775180;80;20650;-58
2021/04/04 00:31:27;;;;;;;;;;;;;;;4.73;67.25;100366.08;1775238;81;20283;-58
2021/04/04 00:34:34;;;;;;;;;;;;;;;4.72;67.44;100369.80;1775226;80;20279;-57
2021/04/04 00:37:40;;;;;;;;;;;;;;;4.74;67.45;100369.16;1774987;80;20303;-58
2021/04/04 00:40:43;;;;;;;;;;;;;;;4.76;67.43;100369.89;1775110;81;20212;-58
2021/04/04 00:43:48;;;;;;;;;;;;;;;4.76;67.44;100374.80;1772043;80;20199;-57
2021/04/04 00:46:54;;;;;;;;;;;;;;;4.74;67.52;100368.64;1774582;81;20277;-57
2021/04/04 00:50:00;;;;;;;;;;;;;;;4.72;67.67;100373.38;1771523;80;20287;-57
2021/04/04 00:53:05;;;;;;;;;;;;;;;4.71;67.81;100366.73;1770967;80;20209;-57
2021/04/04 00:56:10;;;;;;;;;;;;;;;4.75;68.00;100369.02;1771523;80;20274;-57
2021/04/04 00:59:15;;;;;;;;;;;;;;;4.83;67.95;100361.05;1771821;81;20217;-57
2021/04/04 01:02:21;;;;;;;;;;;;;;;4.87;67.81;100362.99;1771538;80;20209;-57
2021/04/04 01:05:27;;;;;;;;;;;;;;;4.87;67.70;100361.63;1764890;81;20246;-58
2021/04/04 01:08:31;;;;;;;;;;;;;;;4.83;67.68;100358.83;1784072;80;20320;-57
2021/04/04 01:11:43;;;;;;;;;;;;;;;4.81;67.86;100360.33;1771956;80;20237;-58
2021/04/04 01:14:53;;;;;;;;;;;;;;;4.82;68.13;100359.31;1771531;80;20596;-58
2021/04/04 01:17:58;;;;;;;;;;;;;;;4.85;68.46;100347.35;1772401;80;20342;-57
2021/04/04 01:21:09;;;;;;;;;;;;;;;4.89;68.61;100352.34;1772135;80;20273;-57
2021/04/04 01:24:50;;;;;;;;;;;;;;;4.90;68.68;100350.50;1771885;80;20240;-57
2021/04/04 01:28:14;;;;;;;;;;;;;;;4.91;68.66;100354.43;1775161;79;20209;-57
2021/04/04 01:31:18;;;;;;;;;;;;;;;4.90;68.72;100348.63;1806778;79;20296;-58
2021/04/04 01:34:24;;;;;;;;;;;;;;;4.92;68.89;100347.12;1806906;79;20312;-57
2021/04/04 01:37:28;;;;;;;;;;;;;;;4.92;68.94;100337.64;1806900;79;20202;-57
2021/04/04 01:40:34;;;;;;;;;;;;;;;4.95;69.05;100352.30;1806732;79;20205;-57
2021/04/04 01:43:41;;;;;;;;;;;;;;;4.98;69.21;100350.14;1805030;79;20508;-57
2021/04/04 01:46:46;;;;;;;;;;;;;;;5.01;69.17;100343.59;1806925;79;20343;-57
2021/04/04 01:49:51;;;;;;;;;;;;;;;5.01;69.11;100341.71;1806801;79;20241;-57
2021/04/04 01:52:55;;;;;;;;;;;;;;;5.01;69.04;100343.59;1806841;79;20542;-57
2021/04/04 01:55:59;;;;;;;;;;;;;;;5.04;69.22;100346.02;1806861;79;20606;-57
2021/04/04 01:59:03;;;;;;;;;;;;;;;5.09;69.04;100342.38;1806877;79;20277;-57
2021/04/04 02:02:09;;;;;;;;;;;;;;;5.12;68.74;100342.09;1806822;79;20288;-57
2021/04/04 02:05:14;;;;;;;;;;;;;;;5.13;68.56;100347.87;1809506;79;20280;-57
2021/04/04 02:08:18;;;;;;;;;;;;;;;5.16;68.70;100348.45;1806798;79;20339;-57
2021/04/04 02:11:24;;;;;;;;;;;;;;;5.22;68.60;100347.00;1807098;79;20323;-57
2021/04/04 02:14:30;;;;;;;;;;;;;;;5.23;68.43;100341.44;1806795;79;20228;-56
2021/04/04 02:17:34;;;;;;;;;;;;;;;5.25;68.36;100346.75;1806650;79;20292;-57
2021/04/04 02:20:39;;;;;;;;;;;;;;;5.25;68.25;100346.23;1806549;79;20273;-57
2021/04/04 02:23:43;;;;;;;;;;;;;;;5.24;68.19;100345.02;1807034;79;20307;-57
2021/04/04 02:26:47;;;;;;;;;;;;;;;5.20;68.10;100349.03;1807100;79;20303;-57
2021/04/04 02:29:50;;;;;;;;;;;;;;;5.13;68.01;100349.23;1807269;79;20308;-57
2021/04/04 02:33:10;;;;;;;;;;;;;;;5.04;68.10;100350.95;1807053;79;20281;-57
2021/04/04 02:36:14;;;;;;;;;;;;;;;4.98;68.30;100346.59;1807125;79;20217;-57
2021/04/04 02:39:27;;;;;;;;;;;;;;;5.04;68.60;100347.38;1806910;79;20253;-56
2021/04/04 02:42:33;;;;;;;;;;;;;;;5.07;68.63;100347.09;1806981;79;20354;-58
2021/04/04 02:45:39;;;;;;;;;;;;;;;5.06;68.66;100343.50;1801819;79;20640;-57
2021/04/04 02:48:48;;;;;;;;;;;;;;;5.03;68.55;100338.86;1801435;79;20281;-57
2021/04/04 02:51:55;;;;;;;;;;;;;;;4.99;68.73;100341.51;1801337;79;20218;-57
2021/04/04 02:54:59;;;;;;;;;;;;;;;5.04;68.85;100353.67;1801286;79;20217;-57
2021/04/04 02:58:04;;;;;;;;;;;;;;;5.11;68.80;100361.58;1801389;79;20209;-57
2021/04/04 03:01:07;;;;;;;;;;;;;;;5.13;68.52;100358.72;1801565;80;20249;-58
2021/04/04 03:04:12;;;;;;;;;;;;;;;5.11;68.38;100361.58;1801311;79;20501;-59
2021/04/04 03:07:17;;;;;;;;;;;;;;;5.13;68.27;100361.44;1801466;80;20465;-57
2021/04/04 03:10:21;;;;;;;;;;;;;;;5.15;68.20;100365.73;1801245;80;20613;-57
2021/04/04 03:13:26;;;;;;;;;;;;;;;5.15;68.05;100361.67;1801414;79;20263;-57
2021/04/04 03:16:30;;;;;;;;;;;;;;;5.17;67.92;100358.81;1801460;80;20292;-57
2021/04/04 03:19:33;;;;;;;;;;;;;;;5.17;67.94;100358.29;1801433;79;20288;-57
2021/04/04 03:22:36;;;;;;;;;;;;;;;5.20;68.07;100351.74;1801415;80;20513;-57
2021/04/04 03:25:40;;;;;;;;;;;;;;;5.24;68.10;100354.52;1801435;80;20216;-57
2021/04/04 03:28:46;;;;;;;;;;;;;;;5.22;67.94;100360.57;1801333;79;20285;-57
2021/04/04 03:31:50;;;;;;;;;;;;;;;5.20;68.02;100363.95;1801568;80;20212;-57
2021/04/04 03:34:53;;;;;;;;;;;;;;;5.19;68.10;100365.80;1801475;79;20205;-57
2021/04/04 03:38:02;;;;;;;;;;;;;;;5.22;68.29;100370.06;1801598;79;20285;-57
2021/04/04 03:41:06;;;;;;;;;;;;;;;5.25;68.29;100371.17;1801469;80;20252;-57
2021/04/04 03:44:11;;;;;;;;;;;;;;;5.32;68.21;100371.80;1801453;79;20216;-57
2021/04/04 03:47:18;;;;;;;;;;;;;;;5.39;67.81;100374.81;1806045;78;20213;-57
2021/04/04 03:50:22;;;;;;;;;;;;;;;5.41;67.49;100377.72;1801943;79;20315;-57
2021/04/04 03:53:28;;;;;;;;;;;;;;;5.44;67.53;100384.74;1806960;79;20273;-57
2021/04/04 03:56:37;;;;;;;;;;;;;;;5.51;67.50;100375.01;1806983;79;20285;-57
2021/04/04 03:59:42;;;;;;;;;;;;;;;5.52;67.24;100376.70;1806953;79;20284;-57
2021/04/04 04:02:44;;;;;;;;;;;;;;;5.55;66.95;100370.50;1809277;79;20318;-57
2021/04/04 04:05:49;;;;;;;;;;;;;;;5.58;66.85;100376.16;1806917;79;20289;-57
2021/04/04 04:08:53;;;;;;;;;;;;;;;5.64;66.87;100374.22;1806907;79;20661;-57
2021/04/04 04:11:57;;;;;;;;;;;;;;;5.67;66.70;100380.22;1806115;79;20300;-58
2021/04/04 04:15:03;;;;;;;;;;;;;;;5.72;66.71;100377.06;1806934;79;20217;-58
2021/04/04 04:18:08;;;;;;;;;;;;;;;5.76;66.61;100386.63;1806978;79;20273;-57
2021/04/04 04:21:14;;;;;;;;;;;;;;;5.79;66.46;100392.63;1806945;79;20205;-58
2021/04/04 04:24:20;;;;;;;;;;;;;;;5.86;66.37;100387.50;1806308;79;20209;-57
2021/04/04 04:27:25;;;;;;;;;;;;;;;5.93;66.22;100393.56;1807087;79;20205;-57
2021/04/04 04:30:29;;;;;;;;;;;;;;;6.01;65.99;100403.69;1807117;79;20260;-56
2021/04/04 04:33:32;;;;;;;;;;;;;;;6.08;65.91;100396.67;1806996;79;20273;-56
2021/04/04 04:36:37;;;;;;;;;;;;;;;6.13;65.74;100401.17;1806916;79;20209;-57
2021/04/04 04:39:43;;;;;;;;;;;;;;;6.20;65.52;100400.09;1806902;79;20308;-56
2021/04/04 04:42:49;;;;;;;;;;;;;;;6.25;65.28;100407.30;1809481;79;20637;-56
2021/04/04 04:45:53;;;;;;;;;;;;;;;6.31;65.23;100405.34;1806847;79;20308;-58
2021/04/04 04:48:59;;;;;;;;;;;;;;;6.37;65.14;100399.30;1806972;79;20236;-57
2021/04/04 04:52:04;;;;;;;;;;;;;;;6.44;64.86;100400.44;1806915;79;20304;-57
2021/04/04 04:55:08;;;;;;;;;;;;;;;6.50;64.94;100397.11;1807106;79;20253;-58
2021/04/04 04:58:13;;;;;;;;;;;;;;;6.53;65.23;100393.59;1806938;79;20170;-57
2021/04/04 05:01:18;;;;;;;;;;;;;;;6.60;65.00;100399.27;1806917;79;20261;-58
2021/04/04 05:04:24;;;;;;;;;;;;;;;6.70;64.75;100410.47;1807052;79;20292;-57
2021/04/04 05:07:28;;;;;;;;;;;;;;;6.81;64.39;100408.91;1806929;79;20284;-57
2021/04/04 05:10:31;;;;;;;;;;;;;;;6.94;63.79;100414.86;1806921;79;20323;-57
2021/04/04 05:13:36;;;;;;;;;;;;;;;7.10;63.08;100415.55;1806456;79;20306;-57
2021/04/04 05:16:39;;;;;;;;;;;;;;;7.27;62.64;100411.49;1806926;79;20284;-57
2021/04/04 05:19:42;;;;;;;;;;;;;;;7.42;61.88;100409.92;1806916;79;20316;-57
2021/04/04 05:22:46;;;;;;;;;;;;;;;7.55;61.20;100414.48;1806815;79;20249;-57
2021/04/04 05:25:51;;;;;;;;;;;;;;;7.68;60.96;100415.95;1806857;79;20281;-57
2021/04/04 05:28:54;;;;;;;;;;;;;;;7.80;60.61;100418.27;1806641;79;20345;-57
2021/04/04 05:32:03;;;;;;;;;;;;;;;7.87;60.43;100421.23;1807006;79;20313;-57
2021/04/04 05:35:09;;;;;;;;;;;;;;;7.91;60.14;100421.28;1806937;79;20284;-58
2021/04/04 05:38:16;;;;;;;;;;;;;;;7.94;59.96;100423.69;1806848;79;20264;-58
2021/04/04 05:41:28;;;;;;;;;;;;;;;7.99;59.98;100420.81;1806789;79;20312;-57
2021/04/04 05:44:51;;;;;;;;;;;;;;;8.09;59.21;100418.86;1806865;79;20557;-57
2021/04/04 05:48:04;;;;;;;;;;;;;;;8.25;58.56;100426.33;1792734;79;20343;-57
2021/04/04 05:51:37;;;;;;;;;;;;;;;8.42;58.53;100422.72;1763312;81;20311;-58
2021/04/04 05:54:57;;;;;;;;;;;;;;;8.57;57.82;100421.95;1741658;81;20284;-58
2021/04/04 05:58:25;;;;;;;;;;;;;;;8.71;56.93;100430.02;1763208;81;20283;-58
2021/04/04 06:01:41;;;;;;;;;;;;;;;8.82;56.24;100426.50;1763135;81;20307;-63
2021/04/04 06:05:08;;;;;;;;;;;;;;;8.95;55.58;100429.64;1763306;81;20300;-57
2021/04/04 06:08:50;;;;;;;;;;;;;;;9.08;54.94;100432.73;1763163;81;20276;-57
2021/04/04 06:12:11;;;;;;;;;;;;;;;9.23;54.56;100447.16;1763114;81;20235;-57
2021/04/04 06:15:51;;;;;;;;;;;;;;;9.33;53.84;100445.98;1763301;81;20287;-57
2021/04/04 06:19:25;;;;;;;;;;;;;;;9.38;54.08;100443.61;1763241;81;20208;-56
2021/04/04 06:22:49;;;;;;;;;;;;;;;9.47;54.65;100456.27;1762837;81;20284;-57
2021/04/04 06:25:59;;;;;;;;;;;;;;;9.55;54.52;100453.55;1762714;81;20279;-57
2021/04/04 06:29:17;;;;;;;;;;;;;;;9.61;54.56;100462.44;1762750;81;20319;-57
2021/04/04 06:32:26;;;;;;;;;;;;;;;9.64;54.69;100462.09;1763248;81;20283;-58
2021/04/04 06:35:41;;;;;;;;;;;;;;;9.70;54.58;100461.45;1763143;81;20280;-57
2021/04/04 06:39:11;;;;;;;;;;;;;;;9.77;54.53;100457.00;1763148;81;20231;-57
2021/04/04 06:42:17;;;;;;;;;;;;;;;9.84;54.63;100455.81;1763305;81;20284;-57
2021/04/04 06:45:53;;;;;;;;;;;;;;;9.92;54.16;100449.86;1763273;81;20208;-58
2021/04/04 06:49:35;;;;;;;;;;;;;;;10.00;54.06;100443.02;1778200;78;20296;-57
2021/04/04 06:52:58;;;;;;;;;;;;;;;10.16;53.70;100445.77;1806844;79;20308;-59
2021/04/04 06:56:15;;;;;;;;;;;;;;;10.34;53.16;100443.70;1806255;79;20573;-58
2021/04/04 06:59:33;;;;;;;;;;;;;;;10.45;52.21;100443.85;1806666;79;20272;-58
2021/04/04 07:03:13;;;;;;;;;;;;;;;10.57;51.83;100447.95;1806739;79;20276;-58
2021/04/04 07:06:30;;;;;;;;;;;;;;;10.75;51.47;100445.00;1806694;79;20288;-58
2021/04/04 07:09:53;;;;;;;;;;;;;;;10.91;51.24;100454.55;1773413;81;20222;-57
2021/04/04 07:13:29;;;;;;;;;;;;;;;11.07;51.03;100453.95;1773350;81;20324;-56
2021/04/04 07:16:56;;;;;;;;;;;;;;;11.23;50.70;100451.66;1773170;81;20234;-57
2021/04/04 07:20:22;;;;;;;;;;;;;;;11.35;49.97;100455.72;1773348;81;20209;-57
2021/04/04 07:23:36;;;;;;;;;;;;;;;11.39;50.55;100453.81;1773352;80;20199;-57
2021/04/04 07:26:50;;;;;;;;;;;;;;;11.45;50.27;100447.61;1773612;80;20234;-57
2021/04/04 07:30:00;;;;;;;;;;;;;;;11.42;50.20;100452.58;1773363;81;20202;-58
2021/04/04 07:33:30;;;;;;;;;;;;;;;11.46;50.37;100445.22;1777368;79;20273;-57
2021/04/04 07:37:06;;;;;;;;;;;;;;;11.56;50.37;100442.25;1774872;81;20291;-58
2021/04/04 07:40:17;;;;;;;;;;;;;;;11.71;50.22;100444.06;1774965;81;20927;-58
2021/04/04 07:43:24;;;;;;;;;;;;;;;11.76;50.10;100444.88;1764917;79;20205;-56
2021/04/04 07:46:30;;;;;;;;;;;;;;;11.87;50.21;100452.69;1771547;81;20297;-57
2021/04/04 07:49:43;;;;;;;;;;;;;;;11.97;49.73;100438.22;1770293;80;20273;-58
2021/04/04 07:53:09;;;;;;;;;;;;;;;12.10;49.23;100445.84;1771792;81;20652;-57
2021/04/04 07:56:47;;;;;;;;;;;;;;;12.16;48.66;100439.09;1771550;81;20309;-58
2021/04/04 07:59:56;;;;;;;;;;;;;;;12.32;48.62;100440.30;1771851;81;20316;-56
2021/04/04 08:03:12;;;;;;;;;;;;;;;12.51;48.17;100437.56;1771745;81;20270;-57
2021/04/04 08:06:17;;;;;;;;;;;;;;;12.61;47.55;100438.98;1780498;79;20262;-56
2021/04/04 08:09:43;;;;;;;;;;;;;;;12.66;46.80;100446.66;1771590;81;20281;-56
2021/04/04 08:12:57;;;;;;;;;;;;;;;12.72;47.00;100439.89;1771770;81;20285;-57
2021/04/04 08:16:06;;;;;;;;;;;;;;;12.87;47.14;100438.03;1771595;81;20292;-58
2021/04/04 08:19:10;;;;;;;;;;;;;;;13.00;46.41;100433.23;1772416;81;20282;-58
2021/04/04 08:22:19;;;;;;;;;;;;;;;13.13;45.68;100433.42;1771189;81;20249;-58
2021/04/04 08:25:26;;;;;;;;;;;;;;;13.22;45.24;100430.38;1771437;81;20217;-59
2021/04/04 08:28:50;;;;;;;;;;;;;;;13.25;44.65;100425.91;1776462;79;20488;-58
2021/04/04 08:32:10;;;;;;;;;;;;;;;13.25;44.27;100418.17;1771406;81;20217;-59
2021/04/04 08:35:17;;;;;;;;;;;;;;;13.25;43.89;100425.04;1771638;81;20538;-58
2021/04/04 08:38:34;;;;;;;;;;;;;;;13.27;44.09;100417.47;1771416;81;20274;-57
2021/04/04 08:41:41;;;;;;;;;;;;;;;13.31;44.66;100422.38;1771719;81;20289;-58
2021/04/04 08:45:12;;;;;;;;;;;;;;;13.24;44.18;100421.43;1771551;81;20499;-58
2021/04/04 08:48:16;;;;;;;;;;;;;;;13.16;44.42;100421.53;1771904;81;20209;-58
2021/04/04 08:51:20;;;;;;;;;;;;;;;13.18;43.81;100421.34;1799392;79;20578;-57
2021/04/04 08:54:27;;;;;;;;;;;;;;;13.20;43.38;100417.38;1768630;81;20695;-58
2021/04/04 08:57:45;;;;;;;;;;;;;;;13.23;42.78;100425.23;1768849;80;20222;-58
2021/04/04 09:00:49;;;;;;;;;;;;;;;13.26;42.80;100408.87;1806232;79;20207;-58
2021/04/04 09:04:00;;;;;;;;;;;;;;;13.30;42.41;100407.45;1768454;81;20301;-57
2021/04/04 09:07:15;;;;;;;;;;;;;;;13.27;42.37;100413.34;1768559;81;20229;-58
2021/04/04 09:10:19;;;;;;;;;;;;;;;13.24;42.24;100413.19;1782793;79;20300;-58
2021/04/04 09:13:23;;;;;;;;;;;;;;;13.26;42.17;100395.98;1807062;79;20209;-58
2021/04/04 09:16:31;;;;;;;;;;;;;;;13.34;41.87;100393.13;1768517;81;20210;-58
2021/04/04 09:19:40;;;;;;;;;;;;;;;13.42;41.84;100397.13;1806063;79;20301;-58
2021/04/04 09:22:44;;;;;;;;;;;;;;;13.55;41.68;100392.30;1802774;79;20206;-58
2021/04/04 09:26:03;;;;;;;;;;;;;;;13.70;41.53;100386.75;1737891;82;20217;-58
2021/04/04 09:29:08;;;;;;;;;;;;;;;13.85;41.22;100380.13;1737535;82;20198;-58
2021/04/04 09:32:14;;;;;;;;;;;;;;;13.92;41.04;100382.95;1739461;81;20251;-55
2021/04/04 09:35:22;;;;;;;;;;;;;;;13.74;41.52;100375.16;1768318;81;20616;-56
2021/04/04 09:38:28;;;;;;;;;;;;;;;13.46;41.93;100368.18;1806364;79;20240;-56
2021/04/04 09:41:32;;;;;;;;;;;;;;;13.36;42.08;100362.69;1806617;79;20300;-59
2021/04/04 09:44:40;;;;;;;;;;;;;;;13.32;42.05;100375.95;1806328;79;20197;-58
2021/04/04 09:47:44;;;;;;;;;;;;;;;13.38;42.11;100361.43;1806285;79;20558;-56
2021/04/04 09:50:47;;;;;;;;;;;;;;;13.56;41.55;100361.53;1806232;79;20277;-56
2021/04/04 09:53:52;;;;;;;;;;;;;;;13.70;40.32;100361.45;1806309;79;20265;-56
2021/04/04 09:56:57;;;;;;;;;;;;;;;13.88;39.19;100359.09;1806587;79;20276;-57
2021/04/04 10:00:02;;;;;;;;;;;;;;;14.02;37.74;100355.41;1783334;79;20272;-57
2021/04/04 10:03:20;;;;;;;;;;;;;;;14.16;37.43;100347.58;1806730;79;20621;-56
2021/04/04 10:06:25;;;;;;;;;;;;;;;14.37;37.80;100336.55;1806760;79;20277;-57
2021/04/04 10:09:29;;;;;;;;;;;;;;;14.51;38.40;100345.23;1806583;79;20323;-57
2021/04/04 10:12:34;;;;;;;;;;;;;;;14.67;37.71;100338.54;1804607;79;20316;-57
2021/04/04 10:15:42;;;;;;;;;;;;;;;14.82;37.59;100333.77;1737366;82;20211;-56
2021/04/04 10:18:49;;;;;;;;;;;;;;;14.88;36.81;100343.45;1805148;79;20273;-57
2021/04/04 10:22:06;;;;;;;;;;;;;;;14.92;36.08;100349.41;1806042;79;20205;-58
2021/04/04 10:25:13;;;;;;;;;;;;;;;14.68;36.76;100355.41;1803675;79;20308;-57
2021/04/04 10:28:17;;;;;;;;;;;;;;;14.16;37.45;100354.46;1804645;79;20272;-58
2021/04/04 10:31:22;;;;;;;;;;;;;;;13.39;38.14;100363.15;1802220;79;20324;-58
2021/04/04 10:34:26;;;;;;;;;;;;;;;12.55;40.09;100366.97;1783057;79;20237;-58
2021/04/04 10:37:31;;;;;;;;;;;;;;;11.86;43.49;100367.34;1758718;81;20541;-58
2021/04/04 10:40:47;;;;;;;;;;;;;;;11.31;46.15;100355.70;1776550;79;20794;-59
2021/04/04 10:43:53;;;;;;;;;;;;;;;10.86;45.92;100377.53;1800400;79;20621;-57
2021/04/04 10:46:59;;;;;;;;;;;;;;;10.51;44.15;100371.48;1796080;79;20233;-58
2021/04/04 10:50:04;;;;;;;;;;;;;;;10.41;43.27;100361.77;1802699;79;20304;-56
2021/04/04 10:53:09;;;;;;;;;;;;;;;10.32;42.94;100349.98;1763651;79;20624;-57
2021/04/04 10:56:15;;;;;;;;;;;;;;;10.42;43.95;100342.45;1749056;81;20283;-56
2021/04/04 10:59:20;;;;;;;;;;;;;;;10.61;43.45;100339.80;1739176;82;20557;-56
2021/04/04 11:02:24;;;;;;;;;;;;;;;10.86;44.31;100346.04;1738267;82;20292;-57
2021/04/04 11:05:29;;;;;;;;;;;;;;;11.10;44.58;100345.37;1747446;81;20211;-58
2021/04/04 11:08:32;;;;;;;;;;;;;;;11.33;43.98;100344.91;1737508;82;20212;-57
2021/04/04 11:11:37;;;;;;;;;;;;;;;11.55;43.06;100344.57;1738347;82;20611;-57
2021/04/04 11:14:40;;;;;;;;;;;;;;;11.78;42.88;100342.72;1740833;82;20204;-58
2021/04/04 11:17:46;;;;;;;;;;;;;;;11.97;43.38;100342.20;1737842;82;20227;-58
2021/04/04 11:20:51;;;;;;;;;;;;;;;12.15;43.49;100335.83;1738333;82;20243;-57
2021/04/04 11:23:55;;;;;;;;;;;;;;;12.40;44.61;100340.02;1738188;82;20207;-57
2021/04/04 11:27:03;;;;;;;;;;;;;;;12.61;45.89;100343.38;1738463;82;20259;-56
2021/04/04 11:30:06;;;;;;;;;;;;;;;12.70;46.27;100341.72;1739042;82;20439;-57
2021/04/04 11:33:27;;;;;;;;;;;;;;;12.83;46.77;100344.64;1739044;82;20236;-56
2021/04/04 11:36:33;;;;;;;;;;;;;;;12.86;46.97;100340.14;1738312;82;20200;-57
2021/04/04 11:39:37;;;;;;;;;;;;;;;12.92;46.79;100344.86;1739287;82;20580;-56
2021/04/04 11:42:42;;;;;;;;;;;;;;;12.94;46.77;100342.78;1739969;81;20212;-57
2021/04/04 11:45:48;;;;;;;;;;;;;;;12.90;47.17;100346.11;1744908;82;20213;-58
2021/04/04 11:48:51;;;;;;;;;;;;;;;13.02;48.20;100343.22;1751492;81;20208;-56
2021/04/04 11:51:54;;;;;;;;;;;;;;;13.26;48.01;100341.00;1751976;81;20283;-56
2021/04/04 11:55:03;;;;;;;;;;;;;;;13.50;46.24;100331.02;1766238;79;20234;-57
2021/04/04 11:58:08;;;;;;;;;;;;;;;13.64;44.61;100328.40;1768905;81;20589;-57
2021/04/04 12:01:13;;;;;;;;;;;;;;;13.76;44.31;100314.43;1769660;81;20218;-57
2021/04/04 12:04:33;;;;;;;;;;;;;;;13.96;43.47;100314.06;1768505;81;20283;-57
2021/04/04 12:07:37;;;;;;;;;;;;;;;14.27;42.69;100302.18;1763959;81;20248;-57
2021/04/04 12:10:45;;;;;;;;;;;;;;;14.63;42.12;100309.70;1763664;81;20624;-58
2021/04/04 12:13:50;;;;;;;;;;;;;;;14.81;42.09;100309.99;1765190;81;20221;-57
2021/04/04 12:16:58;;;;;;;;;;;;;;;14.89;41.21;100322.22;1765451;81;20230;-58
2021/04/04 12:20:03;;;;;;;;;;;;;;;14.76;40.69;100322.19;1768491;81;20618;-57
2021/04/04 12:23:09;;;;;;;;;;;;;;;14.59;40.89;100325.78;1768697;81;20634;-57
2021/04/04 12:26:17;;;;;;;;;;;;;;;14.37;41.28;100331.56;1769016;81;20341;-59
2021/04/04 12:29:23;;;;;;;;;;;;;;;14.08;41.81;100338.64;1766535;81;20652;-58
2021/04/04 12:32:31;;;;;;;;;;;;;;;13.74;42.53;100344.89;1767832;81;20281;-58
2021/04/04 12:35:35;;;;;;;;;;;;;;;13.46;43.06;100357.19;1755068;81;20291;-58
2021/04/04 12:38:42;;;;;;;;;;;;;;;13.23;43.82;100363.38;1762542;81;20695;-58
2021/04/04 12:41:46;;;;;;;;;;;;;;;13.02;44.47;100382.56;1762421;81;20292;-58
2021/04/04 12:44:52;;;;;;;;;;;;;;;12.75;44.72;100394.19;1766347;81;20291;-57
2021/04/04 12:47:57;;;;;;;;;;;;;;;12.28;45.77;100394.19;1762596;81;20307;-57
2021/04/04 12:51:05;;;;;;;;;;;;;;;11.94;47.22;100391.92;1762466;81;20229;-57
2021/04/04 12:54:09;;;;;;;;;;;;;;;11.53;49.02;100402.83;1761987;79;20207;-57
2021/04/04 12:57:15;;;;;;;;;;;;;;;10.84;51.93;100404.23;1763080;81;20241;-56
2021/04/04 13:00:25;;;;;;;;;;;;;;;10.15;55.16;100416.70;1762944;81;20600;-57
2021/04/04 13:03:39;;;;;;;;;;;;;;;9.51;57.90;100424.00;1762846;81;20279;-56
2021/04/04 13:06:46;;;;;;;;;;;;;;;8.92;60.25;100423.64;1762786;81;20287;-56
2021/04/04 13:09:52;;;;;;;;;;;;;;;8.59;62.23;100418.52;1762990;81;20280;-58
2021/04/04 13:12:56;;;;;;;;;;;;;;;8.57;63.29;100416.48;1763187;81;20212;-57
2021/04/04 13:16:07;;;;;;;;;;;;;;;8.66;63.93;100410.05;1762886;81;20706;-58
2021/04/04 13:19:13;;;;;;;;;;;;;;;8.87;64.82;100400.08;1762760;81;20287;-57
2021/04/04 13:22:18;;;;;;;;;;;;;;;9.08;64.97;100389.58;1762467;81;20276;-58
2021/04/04 13:25:22;;;;;;;;;;;;;;;9.38;65.30;100389.47;1762628;81;20307;-58
2021/04/04 13:28:39;;;;;;;;;;;;;;;9.66;65.12;100373.96;1798552;79;20201;-57
2021/04/04 13:31:43;;;;;;;;;;;;;;;9.93;65.20;100376.36;1806368;79;20300;-57
2021/04/04 13:34:50;;;;;;;;;;;;;;;10.17;64.77;100364.06;1806300;79;20245;-57
2021/04/04 13:37:55;;;;;;;;;;;;;;;10.35;64.06;100351.00;1806343;79;20292;-56
2021/04/04 13:41:01;;;;;;;;;;;;;;;10.50;62.61;100347.89;1806532;79;20219;-57
2021/04/04 13:44:05;;;;;;;;;;;;;;;10.63;62.09;100340.99;1806873;79;20276;-57
2021/04/04 13:47:12;;;;;;;;;;;;;;;10.76;61.73;100339.41;1806589;79;20617;-57
2021/04/04 13:50:23;;;;;;;;;;;;;;;10.93;62.29;100331.95;1809708;79;20323;-57
2021/04/04 13:53:33;;;;;;;;;;;;;;;11.15;62.17;100334.73;1775128;80;20307;-56
2021/04/04 13:56:44;;;;;;;;;;;;;;;11.45;62.36;100332.98;1772162;80;20499;-57
2021/04/04 13:59:58;;;;;;;;;;;;;;;11.65;60.40;100334.25;1774232;80;20211;-56
2021/04/04 14:03:01;;;;;;;;;;;;;;;11.79;59.14;100334.81;1774368;80;20208;-57
2021/04/04 14:06:13;;;;;;;;;;;;;;;11.92;57.76;100336.41;1791512;79;20201;-57
2021/04/04 14:09:18;;;;;;;;;;;;;;;11.99;55.68;100341.47;1806002;79;20197;-57
2021/04/04 14:12:23;;;;;;;;;;;;;;;12.02;53.93;100346.59;1806675;79;20205;-57
2021/04/04 14:15:28;;;;;;;;;;;;;;;12.01;53.29;100342.14;1806640;79;20256;-58
2021/04/04 14:18:43;;;;;;;;;;;;;;;11.98;52.74;100338.41;1768105;81;20208;-57
2021/04/04 14:21:48;;;;;;;;;;;;;;;11.86;53.15;100335.79;1767673;81;20555;-57
2021/04/04 14:24:53;;;;;;;;;;;;;;;11.75;52.83;100342.55;1768134;81;20215;-57
2021/04/04 14:27:51;;;;;;;;;;;;;;;11.73;52.90;100338.30;1768205;81;20207;-55
2021/04/04 14:30:55;;;;;;;;;;;;;;;11.72;53.14;100337.94;1768273;81;20247;-56
2021/04/04 14:33:58;;;;;;;;;;;;;;;11.67;53.21;100341.78;1759731;81;20213;-56
2021/04/04 14:37:02;;;;;;;;;;;;;;;11.58;52.96;100338.72;1752055;81;20284;-56
2021/04/04 14:40:09;;;;;;;;;;;;;;;11.49;53.01;100326.12;1759228;81;20319;-56
2021/04/04 14:43:31;;;;;;;;;;;;;;;11.39;52.35;100322.75;1741274;81;20664;-56
2021/04/04 14:46:29;;;;;;;;;;;;;;;11.32;52.80;100332.22;1776902;79;20285;-56
2021/04/04 14:49:34;;;;;;;;;;;;;;;11.25;53.30;100335.87;1800737;79;20316;-56
2021/04/04 14:52:49;;;;;;;;;;;;;;;11.20;53.31;100338.30;1772845;81;20506;-57
2021/04/04 14:55:58;;;;;;;;;;;;;;;11.17;54.07;100343.64;1796745;79;20207;-57
2021/04/04 14:59:03;;;;;;;;;;;;;;;11.07;54.14;100343.55;1774703;81;20271;-57
2021/04/04 15:02:24;;;;;;;;;;;;;;;11.04;53.75;100346.61;1774936;81;20220;-57
2021/04/04 15:05:18;;;;;;;;;;;;;;;11.04;54.16;100353.45;1775025;81;20283;-57
2021/04/04 15:08:22;;;;;;;;;;;;;;;11.03;53.72;100347.66;1774996;81;20671;-56
2021/04/04 15:11:26;;;;;;;;;;;;;;;11.02;53.79;100345.97;1774966;81;20314;-58
2021/04/04 15:14:30;;;;;;;;;;;;;;;11.02;53.20;100349.53;1774481;81;20699;-57
2021/04/04 15:17:37;;;;;;;;;;;;;;;10.99;52.88;100348.52;1773714;81;20255;-58
2021/04/04 15:20:41;;;;;;;;;;;;;;;10.99;52.74;100346.33;1774478;81;20290;-57
2021/04/04 15:23:46;;;;;;;;;;;;;;;10.98;52.58;100356.92;1774947;81;20369;-57
2021/04/04 15:26:50;;;;;;;;;;;;;;;10.98;52.25;100354.19;1789836;79;20233;-57
2021/04/04 15:29:57;;;;;;;;;;;;;;;10.99;52.33;100358.11;1800946;79;20336;-57
2021/04/04 15:33:13;;;;;;;;;;;;;;;10.98;52.30;100374.73;1806265;79;20438;-58
2021/04/04 15:36:17;;;;;;;;;;;;;;;10.82;52.61;100375.66;1803579;79;20670;-57
2021/04/04 15:39:21;;;;;;;;;;;;;;;10.53;53.36;100372.67;1806648;79;20261;-56
2021/04/04 15:42:24;;;;;;;;;;;;;;;10.26;54.34;100371.21;1807206;79;20300;-57
2021/04/04 15:45:32;;;;;;;;;;;;;;;10.05;55.15;100371.40;1807331;79;20209;-56
2021/04/04 15:48:36;;;;;;;;;;;;;;;9.91;56.08;100360.62;1807192;79;20307;-57
2021/04/04 15:51:42;;;;;;;;;;;;;;;9.76;56.68;100356.89;1807308;79;20605;-57
2021/04/04 15:54:46;;;;;;;;;;;;;;;9.66;57.75;100356.20;1807438;79;20335;-57
2021/04/04 15:57:49;;;;;;;;;;;;;;;9.52;58.01;100365.58;1805829;79;20268;-57
2021/04/04 16:00:53;;;;;;;;;;;;;;;9.34;58.40;100375.82;1807472;79;20209;-58
2021/04/04 16:03:57;;;;;;;;;;;;;;;9.19;58.82;100378.84;1807230;79;20210;-57
2021/04/04 16:07:01;;;;;;;;;;;;;;;9.03;59.21;100384.62;1807334;79;20300;-58
2021/04/04 16:10:06;;;;;;;;;;;;;;;8.89;59.64;100388.49;1807074;79;20229;-57
2021/04/04 16:13:12;;;;;;;;;;;;;;;8.77;60.06;100387.92;1807418;79;20525;-56